Time;durP1;ratioP1;P1;durP2;ratioP2;P2;SDS_P1;SDS_P2;PMS_P1;PMS_P2;Temp;Humidity;BMP_temperature;BMP_pressure;BME280_temperature;BME280_humidity;BME280_pressure;Samples;Min_cycle;Max_cycle;Signal;HPM_P1;HPM_P2
2022/09/12 00:01:24;;;;;;;10.85;7.40;;;;;;;12.10;100.00;100845.75;6278234;28;20032;-90
2022/09/12 00:04:27;;;;;;;9.20;7.10;;;;;;;12.11;100.00;100850.00;6272498;28;20061;-90
2022/09/12 00:07:28;;;;;;;10.45;7.25;;;;;;;12.07;100.00;100841.63;6276013;28;20592;-90
2022/09/12 00:10:30;;;;;;;8.70;7.10;;;;;;;12.04;100.00;100839.28;6284195;28;20129;-90
2022/09/12 00:13:32;;;;;;;11.32;7.13;;;;;;;12.05;100.00;100830.56;6272943;28;20403;-90
2022/09/12 00:16:37;;;;;;;10.32;6.47;;;;;;;12.02;100.00;100836.84;6277586;28;20036;-90
2022/09/12 00:19:39;;;;;;;9.77;6.78;;;;;;;12.01;100.00;100839.53;6283750;28;20036;-90
2022/09/12 00:22:41;;;;;;;9.90;6.75;;;;;;;11.97;100.00;100836.34;6279883;28;20040;-90
2022/09/12 00:25:46;;;;;;;7.80;5.97;;;;;;;11.96;100.00;100826.13;6264216;28;20071;-90
2022/09/12 00:28:48;;;;;;;8.63;5.97;;;;;;;11.96;100.00;100832.13;6270474;28;20510;-91
2022/09/12 00:31:49;;;;;;;7.10;5.25;;;;;;;11.97;100.00;100828.56;6276689;28;20521;-91
2022/09/12 00:34:51;;;;;;;7.95;6.28;;;;;;;11.95;100.00;100827.03;6283356;28;20413;-91
2022/09/12 00:37:54;;;;;;;10.27;6.78;;;;;;;11.93;100.00;100829.78;6274270;28;20071;-91
2022/09/12 00:40:55;;;;;;;8.90;6.53;;;;;;;11.93;100.00;100834.16;6278341;28;20458;-91
2022/09/12 00:44:22;;;;;;;9.50;6.22;;;;;;;11.90;100.00;100824.00;6272724;28;20128;-91
2022/09/12 00:47:30;;;;;;;8.43;6.18;;;;;;;11.85;100.00;100821.75;6264467;28;20601;-91
2022/09/12 00:50:32;;;;;;;7.10;5.60;;;;;;;11.81;100.00;100821.16;6282268;28;20052;-91
2022/09/12 00:53:34;;;;;;;8.27;6.35;;;;;;;11.79;100.00;100809.25;6265528;28;20037;-91
2022/09/12 00:56:39;;;;;;;8.68;6.25;;;;;;;11.78;100.00;100816.22;6270405;28;20481;-91
2022/09/12 01:00:05;;;;;;;9.65;6.68;;;;;;;11.77;100.00;100811.16;6275010;28;20146;-91
2022/09/12 01:03:13;;;;;;;10.98;6.32;;;;;;;11.78;100.00;100816.22;6269592;28;20348;-91
2022/09/12 01:06:21;;;;;;;7.40;5.88;;;;;;;11.76;100.00;100807.75;6280066;28;20056;-91
2022/09/12 01:09:24;;;;;;;9.07;6.03;;;;;;;11.73;100.00;100808.00;6284091;28;20041;-91
2022/09/12 01:12:26;;;;;;;7.72;6.25;;;;;;;11.70;100.00;100803.06;6265123;28;20052;-91
2022/09/12 01:15:29;;;;;;;7.30;5.53;;;;;;;11.68;100.00;100806.72;6266498;28;20380;-91
2022/09/12 01:19:03;;;;;;;9.02;5.78;;;;;;;11.65;100.00;100802.56;6269669;28;20051;-91
2022/09/12 01:22:47;;;;;;;9.63;6.18;;;;;;;11.64;100.00;100798.34;6229513;28;20049;-91
2022/09/12 01:26:11;;;;;;;8.90;6.03;;;;;;;11.62;100.00;100795.84;6229171;28;20582;-90
2022/09/12 01:29:40;;;;;;;7.22;5.53;;;;;;;11.62;100.00;100795.03;6204260;28;20053;-90
2022/09/12 01:33:00;;;;;;;7.63;5.80;;;;;;;11.61;100.00;100794.22;6213813;28;20059;-90
2022/09/12 01:36:26;;;;;;;9.13;6.10;;;;;;;11.58;100.00;100796.25;6229921;28;20526;-91
2022/09/12 01:39:52;;;;;;;8.43;6.03;;;;;;;11.56;100.00;100798.94;6229289;28;20138;-91
2022/09/12 01:43:04;;;;;;;8.32;5.55;;;;;;;11.53;100.00;100796.59;6212227;28;20049;-91
2022/09/12 01:46:14;;;;;;;7.93;5.65;;;;;;;11.50;100.00;100783.88;6204366;28;20132;-91
2022/09/12 01:49:28;;;;;;;8.00;5.43;;;;;;;11.48;100.00;100782.34;6227901;28;20161;-91
2022/09/12 01:52:43;;;;;;;7.85;5.88;;;;;;;11.45;100.00;100779.97;6229980;28;20057;-91
2022/09/12 01:55:53;;;;;;;8.05;5.93;;;;;;;11.45;100.00;100777.41;6230285;28;20045;-91
2022/09/12 01:58:58;;;;;;;6.57;5.17;;;;;;;11.46;100.00;100777.28;6247275;28;20056;-91
2022/09/12 02:02:20;;;;;;;7.95;6.03;;;;;;;11.45;100.00;100769.63;6275625;28;20048;-91
2022/09/12 02:05:44;;;;;;;8.45;6.20;;;;;;;11.46;100.00;100769.50;6278934;28;20068;-91
2022/09/12 02:08:52;;;;;;;7.38;5.65;;;;;;;11.47;100.00;100762.56;6282754;28;20036;-91
2022/09/12 02:11:59;;;;;;;8.25;5.70;;;;;;;11.45;100.00;100770.44;6288594;28;20069;-91
2022/09/12 02:15:06;;;;;;;7.03;5.38;;;;;;;11.41;100.00;100771.63;6281489;28;20037;-91
2022/09/12 02:18:13;;;;;;;7.53;5.47;;;;;;;11.38;100.00;100769.28;6271573;28;20048;-92
2022/09/12 02:21:18;;;;;;;8.07;5.93;;;;;;;11.34;100.00;100760.91;6283256;28;20085;-91
2022/09/12 02:24:23;;;;;;;9.52;7.20;;;;;;;11.33;100.00;100763.63;6292152;28;20642;-92
2022/09/12 02:27:43;;;;;;;8.40;6.70;;;;;;;11.30;100.00;100764.69;6265414;28;20056;-91
2022/09/12 02:30:58;;;;;;;8.13;6.00;;;;;;;11.25;100.00;100772.00;6276288;28;20414;-91
2022/09/12 02:34:34;;;;;;;9.35;6.43;;;;;;;11.21;100.00;100768.00;6276541;28;20047;-91
2022/09/12 02:37:45;;;;;;;7.55;6.07;;;;;;;11.18;100.00;100763.09;6278597;28;20044;-91
2022/09/12 02:40:47;;;;;;;9.13;6.38;;;;;;;11.16;100.00;100762.38;6280036;28;20820;-91
2022/09/12 02:43:52;;;;;;;11.00;6.55;;;;;;;11.13;100.00;100760.00;6278598;28;20656;-91
2022/09/12 02:47:01;;;;;;;11.90;7.63;;;;;;;11.11;100.00;100756.72;6272458;28;20212;-92
2022/09/12 02:50:07;;;;;;;11.35;7.10;;;;;;;11.08;100.00;100756.94;6282124;28;20058;-92
2022/09/12 02:53:10;;;;;;;10.18;6.97;;;;;;;11.04;100.00;100753.78;6280265;28;20124;-91
2022/09/12 02:56:20;;;;;;;13.00;7.78;;;;;;;11.04;100.00;100748.59;6271849;28;20044;-91
2022/09/12 02:59:23;;;;;;;10.20;7.78;;;;;;;11.02;100.00;100744.47;6274828;28;20052;-91
2022/09/12 03:02:26;;;;;;;12.60;7.30;;;;;;;11.02;100.00;100753.06;6277705;28;20037;-92
2022/09/12 03:05:36;;;;;;;13.85;8.13;;;;;;;10.96;100.00;100740.59;6284800;28;20798;-92
2022/09/12 03:09:08;;;;;;;11.43;8.00;;;;;;;10.95;100.00;100741.53;6280157;28;20553;-91
2022/09/12 03:12:25;;;;;;;11.05;7.07;;;;;;;10.98;100.00;100747.31;6245946;28;20060;-92
2022/09/12 03:15:32;;;;;;;12.73;6.82;;;;;;;10.94;100.00;100745.06;6259836;28;20125;-91
2022/09/12 03:18:59;;;;;;;10.63;7.18;;;;;;;10.89;100.00;100745.41;6259796;28;20037;-91
2022/09/12 03:22:17;;;;;;;12.45;7.40;;;;;;;10.88;100.00;100754.13;6258172;28;20052;-92
2022/09/12 03:25:28;;;;;;;10.15;7.63;;;;;;;10.82;100.00;100741.66;6259480;28;20049;-91
2022/09/12 03:28:33;;;;;;;11.82;8.02;;;;;;;10.82;100.00;100741.66;6257172;28;20053;-92
2022/09/12 03:31:36;;;;;;;10.65;7.70;;;;;;;10.78;100.00;100738.47;6259649;28;20073;-92
2022/09/12 03:34:37;;;;;;;9.88;6.90;;;;;;;10.76;100.00;100752.50;6242633;28;20049;-92
2022/09/12 03:37:40;;;;;;;9.88;6.93;;;;;;;10.74;100.00;100744.00;6259940;28;20036;-92
2022/09/12 03:40:43;;;;;;;9.73;6.65;;;;;;;10.70;100.00;100745.97;6259875;28;20051;-92
2022/09/12 03:43:45;;;;;;;10.00;6.97;;;;;;;10.71;100.00;100741.66;6259336;28;20200;-92
2022/09/12 03:46:47;;;;;;;13.43;7.75;;;;;;;10.70;100.00;100738.22;6259652;28;20045;-92
2022/09/12 03:49:51;;;;;;;10.30;7.40;;;;;;;10.73;100.00;100743.19;6275564;28;20087;-92
2022/09/12 03:52:53;;;;;;;10.07;7.32;;;;;;;10.73;100.00;100748.38;6282592;28;20426;-92
2022/09/12 03:55:55;;;;;;;10.90;7.32;;;;;;;10.72;100.00;100746.69;6273008;28;20098;-91
2022/09/12 03:58:57;;;;;;;11.43;7.60;;;;;;;10.71;100.00;100744.25;6277390;28;20039;-92
2022/09/12 04:01:59;;;;;;;11.57;7.50;;;;;;;10.63;100.00;100737.03;6285550;28;20070;-92
2022/09/12 04:05:01;;;;;;;14.02;7.78;;;;;;;10.66;100.00;100742.00;6277325;28;20040;-92
2022/09/12 04:08:04;;;;;;;11.90;7.72;;;;;;;10.65;100.00;100742.09;6286927;28;20040;-92
2022/09/12 04:11:08;;;;;;;11.25;7.25;;;;;;;10.65;100.00;100748.09;6280802;28;20048;-91
2022/09/12 04:14:10;;;;;;;11.68;7.57;;;;;;;10.66;100.00;100742.00;6284833;28;20049;-91
2022/09/12 04:17:13;;;;;;;8.80;6.22;;;;;;;10.66;100.00;100741.19;6277273;28;20045;-91
2022/09/12 04:20:15;;;;;;;10.00;7.10;;;;;;;10.66;100.00;100742.00;6278682;28;20045;-91
2022/09/12 04:23:17;;;;;;;11.38;6.68;;;;;;;10.64;100.00;100746.47;6283972;28;20044;-92
2022/09/12 04:26:19;;;;;;;9.82;6.45;;;;;;;10.62;100.00;100742.34;6294705;28;20089;-91
2022/09/12 04:29:22;;;;;;;9.55;6.57;;;;;;;10.60;100.00;100734.69;6275615;28;20037;-91
2022/09/12 04:32:24;;;;;;;9.70;6.60;;;;;;;10.57;100.00;100738.31;6272667;28;20501;-92
2022/09/12 04:35:26;;;;;;;12.38;8.25;;;;;;;10.57;100.00;100742.69;6269292;28;20041;-91
2022/09/12 04:38:28;;;;;;;11.68;7.20;;;;;;;10.60;100.00;100745.03;6279154;28;20037;-91
2022/09/12 04:41:33;;;;;;;10.48;7.07;;;;;;;10.57;100.00;100751.28;6279618;28;20150;-91
2022/09/12 04:44:34;;;;;;;13.10;6.93;;;;;;;10.52;100.00;100747.38;6282337;28;20048;-91
2022/09/12 04:47:36;;;;;;;10.63;6.78;;;;;;;10.48;100.00;100748.53;6277289;28;20406;-92
2022/09/12 04:50:38;;;;;;;11.02;7.30;;;;;;;10.47;100.00;100759.84;6281452;28;20169;-92
2022/09/12 04:53:41;;;;;;;10.68;7.13;;;;;;;10.44;100.00;100747.97;6280048;28;20619;-92
2022/09/12 04:56:45;;;;;;;13.55;7.85;;;;;;;10.45;100.00;100744.44;6273462;28;20037;-91
2022/09/12 04:59:47;;;;;;;11.65;7.50;;;;;;;10.49;100.00;100752.81;6278264;28;20041;-91
2022/09/12 05:02:49;;;;;;;10.93;7.50;;;;;;;10.55;100.00;100763.50;6277769;28;20048;-92
2022/09/12 05:05:52;;;;;;;10.45;6.95;;;;;;;10.57;100.00;100766.81;6286643;28;20045;-91
2022/09/12 05:08:58;;;;;;;10.55;7.00;;;;;;;10.52;100.00;100773.28;6283941;28;20032;-92
2022/09/12 05:12:00;;;;;;;11.02;6.97;;;;;;;10.49;100.00;100756.22;6271625;28;20052;-92
2022/09/12 05:15:06;;;;;;;12.80;7.10;;;;;;;10.53;100.00;100756.78;6278750;28;20052;-92
2022/09/12 05:18:10;;;;;;;12.18;6.90;;;;;;;10.56;100.00;100757.41;6274418;28;20052;-92
2022/09/12 05:21:14;;;;;;;13.65;8.50;;;;;;;10.61;100.00;100758.81;6277638;28;20134;-91
2022/09/12 05:24:17;;;;;;;11.95;7.95;;;;;;;10.66;100.00;100752.34;6284670;28;20351;-91
2022/09/12 05:27:19;;;;;;;12.50;8.05;;;;;;;10.72;100.00;100764.00;6277964;28;20513;-91
2022/09/12 05:30:21;;;;;;;13.30;8.25;;;;;;;10.81;100.00;100755.53;6271765;28;20183;-91
2022/09/12 05:33:23;;;;;;;14.43;8.82;;;;;;;10.87;100.00;100757.66;6269256;28;20118;-92
2022/09/12 05:36:30;;;;;;;15.45;8.88;;;;;;;10.93;100.00;100762.38;6265728;28;20045;-92
2022/09/12 05:39:32;;;;;;;13.13;8.65;;;;;;;10.95;100.00;100768.25;6277860;28;20048;-91
2022/09/12 05:42:35;;;;;;;12.85;7.78;;;;;;;11.00;100.00;100770.47;6258372;28;20487;-91
2022/09/12 05:45:37;;;;;;;13.57;8.45;;;;;;;11.03;100.00;100759.91;6269916;28;20044;-91
2022/09/12 05:48:42;;;;;;;12.82;7.45;;;;;;;11.09;100.00;100764.59;6276357;28;20032;-91
2022/09/12 05:51:45;;;;;;;14.43;8.50;;;;;;;11.13;100.00;100765.19;6275284;28;20409;-91
2022/09/12 05:54:47;;;;;;;13.23;8.10;;;;;;;11.17;100.00;100766.59;6280007;28;20041;-91
2022/09/12 05:57:50;;;;;;;15.77;8.70;;;;;;;11.19;100.00;100762.13;6266689;28;20040;-91
2022/09/12 06:00:52;;;;;;;11.35;7.78;;;;;;;11.24;100.00;100769.53;6257161;28;20060;-91
2022/09/12 06:03:56;;;;;;;14.40;8.52;;;;;;;11.27;100.00;100774.47;6284721;28;20398;-91
2022/09/12 06:06:59;;;;;;;15.98;8.48;;;;;;;11.30;100.00;100767.28;6280561;28;20051;-91
2022/09/12 06:10:02;;;;;;;15.27;8.40;;;;;;;11.34;100.00;100773.06;6277248;28;20439;-92
2022/09/12 06:13:04;;;;;;;14.90;8.75;;;;;;;11.39;100.00;100771.75;6265466;28;20576;-91
2022/09/12 06:16:08;;;;;;;14.02;8.60;;;;;;;11.47;100.00;100762.56;6287096;28;20049;-91
2022/09/12 06:19:22;;;;;;;12.52;8.02;;;;;;;11.51;100.00;100769.16;6288147;28;20045;-91
2022/09/12 06:22:24;;;;;;;13.00;8.23;;;;;;;11.53;100.00;100762.09;6271659;28;20044;-91
2022/09/12 06:25:26;;;;;;;13.48;8.25;;;;;;;11.56;100.00;100760.06;6275758;28;20045;-92
2022/09/12 06:28:28;;;;;;;12.30;8.20;;;;;;;11.62;100.00;100764.75;6298414;28;20048;-91
2022/09/12 06:31:33;;;;;;;12.00;7.55;;;;;;;11.69;100.00;100759.91;6282824;28;20037;-92
2022/09/12 06:34:35;;;;;;;11.48;8.27;;;;;;;11.76;100.00;100761.06;6284073;28;20417;-91
2022/09/12 06:37:37;;;;;;;11.57;7.88;;;;;;;11.82;100.00;100752.78;6273656;28;20131;-91
2022/09/12 06:40:43;;;;;;;12.00;7.88;;;;;;;11.87;100.00;100759.41;6278106;28;20041;-91
2022/09/12 06:43:45;;;;;;;11.80;8.38;;;;;;;11.92;100.00;100752.88;6257884;28;20033;-91
2022/09/12 06:46:48;;;;;;;13.75;8.52;;;;;;;12.00;100.00;100752.25;6267231;28;20036;-91
2022/09/12 06:49:50;;;;;;;12.55;8.82;;;;;;;12.07;100.00;100758.59;6278482;28;20041;-91
2022/09/12 06:52:51;;;;;;;16.10;10.02;;;;;;;12.16;100.00;100755.25;6271381;28;20327;-91
2022/09/12 06:55:55;;;;;;;14.15;8.95;;;;;;;12.23;100.00;100755.59;6273253;28;20044;-91
2022/09/12 06:58:58;;;;;;;13.55;8.77;;;;;;;12.31;100.00;100753.19;6289177;28;20422;-91
2022/09/12 07:02:00;;;;;;;18.92;9.82;;;;;;;12.38;100.00;100750.91;6266667;28;20045;-91
2022/09/12 07:05:02;;;;;;;16.00;9.50;;;;;;;12.42;100.00;100750.53;6267379;28;20084;-91
2022/09/12 07:08:04;;;;;;;16.35;9.30;;;;;;;12.50;100.00;100753.31;6274813;28;20117;-91
2022/09/12 07:11:12;;;;;;;16.27;9.10;;;;;;;12.57;100.00;100757.97;6287299;28;20037;-92
2022/09/12 07:14:14;;;;;;;20.45;10.27;;;;;;;12.64;100.00;100753.91;6287668;28;20040;-91
2022/09/12 07:17:17;;;;;;;16.45;9.35;;;;;;;12.70;100.00;100762.00;6272372;28;20428;-91
2022/09/12 07:20:18;;;;;;;16.63;9.95;;;;;;;12.76;100.00;100755.47;6287846;28;20037;-91
2022/09/12 07:23:20;;;;;;;15.05;9.82;;;;;;;12.81;100.00;100758.50;6269504;28;20045;-91
2022/09/12 07:26:23;;;;;;;17.75;10.63;;;;;;;12.89;100.00;100757.84;6282771;28;20498;-91
2022/09/12 07:29:25;;;;;;;17.75;10.38;;;;;;;12.98;100.00;100751.06;6283865;28;20565;-91
2022/09/12 07:32:37;;;;;;;17.20;10.95;;;;;;;13.09;100.00;100758.75;6280141;28;20489;-91
2022/09/12 07:35:39;;;;;;;17.98;10.90;;;;;;;13.19;100.00;100758.78;6277412;28;20041;-91
2022/09/12 07:38:41;;;;;;;17.60;10.00;;;;;;;13.27;100.00;100762.41;6278204;28;20116;-92
2022/09/12 07:41:43;;;;;;;16.42;11.38;;;;;;;13.39;100.00;100763.13;6269591;28;20033;-92
2022/09/12 07:44:45;;;;;;;14.85;10.48;;;;;;;13.48;100.00;100759.69;6266054;28;20033;-91
2022/09/12 07:47:47;;;;;;;14.65;10.45;;;;;;;13.57;100.00;100763.28;6287997;28;20423;-92
2022/09/12 07:51:02;;;;;;;17.48;10.80;;;;;;;13.71;100.00;100764.66;6272906;28;20128;-91
2022/09/12 07:54:08;;;;;;;17.90;11.52;;;;;;;13.83;100.00;100766.19;6283606;28;20110;-92
2022/09/12 07:57:10;;;;;;;16.45;10.82;;;;;;;13.91;100.00;100760.28;6274752;28;20048;-91
2022/09/12 08:00:12;;;;;;;17.45;10.20;;;;;;;14.00;100.00;100769.88;6286672;28;20048;-92
2022/09/12 08:03:17;;;;;;;18.25;11.00;;;;;;;14.08;100.00;100764.81;6284797;28;20047;-91
2022/09/12 08:06:23;;;;;;;16.35;10.25;;;;;;;14.18;100.00;100768.22;6283628;28;20469;-91
2022/09/12 08:09:24;;;;;;;16.00;9.63;;;;;;;14.29;100.00;100769.06;6282113;28;20521;-91
2022/09/12 08:12:33;;;;;;;18.65;10.63;;;;;;;14.39;100.00;100768.06;6279086;28;20549;-91
2022/09/12 08:15:35;;;;;;;18.15;10.88;;;;;;;14.54;100.00;100768.47;6277119;28;20032;-91
2022/09/12 08:18:37;;;;;;;15.32;9.63;;;;;;;14.66;100.00;100766.53;6275857;28;20114;-90
2022/09/12 08:21:38;;;;;;;17.77;10.45;;;;;;;14.81;100.00;100766.91;6285360;28;20033;-90
2022/09/12 08:24:43;;;;;;;13.73;10.20;;;;;;;14.95;100.00;100763.81;6270429;28;20375;-90
2022/09/12 08:27:45;;;;;;;19.65;9.38;;;;;;;15.08;100.00;100759.09;6280395;28;20040;-91
2022/09/12 08:30:47;;;;;;;14.27;8.98;;;;;;;15.25;100.00;100764.47;6279111;28;20045;-91
2022/09/12 08:33:50;;;;;;;13.73;9.70;;;;;;;15.42;100.00;100760.28;6279516;28;20056;-92
2022/09/12 08:36:54;;;;;;;16.25;10.00;;;;;;;15.59;100.00;100761.25;6280817;28;20039;-92
2022/09/12 08:39:56;;;;;;;13.88;8.40;;;;;;;15.78;100.00;100761.16;6276502;28;20042;-91
2022/09/12 08:43:34;;;;;;;14.07;8.68;;;;;;;16.00;100.00;100761.66;6269440;28;20190;-91
2022/09/12 08:47:04;;;;;;;10.52;7.35;;;;;;;16.22;100.00;100760.38;6272342;28;20049;-91
2022/09/12 08:50:09;;;;;;;21.20;9.02;;;;;;;16.38;100.00;100765.72;6274512;28;20483;-91
2022/09/12 08:53:20;;;;;;;14.73;7.68;;;;;;;16.55;100.00;100764.03;6273796;28;20033;-92
2022/09/12 08:56:24;;;;;;;10.93;7.53;;;;;;;16.75;100.00;100762.00;6280880;28;20241;-92
2022/09/12 08:59:45;;;;;;;10.20;7.30;;;;;;;17.04;100.00;100766.09;6279959;28;20478;-92
2022/09/12 09:03:30;;;;;;;11.25;6.90;;;;;;;17.30;100.00;100756.38;6283023;28;20283;-92
2022/09/12 09:07:09;;;;;;;9.55;6.55;;;;;;;17.59;100.00;100755.16;6300213;28;20044;-92
2022/09/12 09:10:20;;;;;;;8.05;6.13;;;;;;;17.81;100.00;100753.69;6284186;28;20486;-92
2022/09/12 09:17:33;;;;;;;8.30;5.43;;;;;;;18.35;100.00;100740.09;6269775;28;20036;-92
2022/09/12 09:20:50;;;;;;;7.45;5.53;;;;;;;18.72;100.00;100744.75;6275388;28;20037;-92
2022/09/12 09:24:00;;;;;;;9.13;5.60;;;;;;;19.00;100.00;100737.28;6274716;28;20143;-92
2022/09/12 09:27:14;;;;;;;6.97;4.93;;;;;;;19.30;100.00;100732.22;6277280;28;20041;-92
2022/09/12 09:30:36;;;;;;;6.38;4.93;;;;;;;19.58;100.00;100735.97;6274797;28;20387;-92
2022/09/12 09:33:38;;;;;;;7.43;5.72;;;;;;;19.74;100.00;100734.25;6282531;28;20275;-92
2022/09/12 09:37:14;;;;;;;7.65;4.90;;;;;;;19.86;100.00;100735.47;6286786;28;20515;-91
2022/09/12 09:40:26;;;;;;;7.63;5.22;;;;;;;19.98;100.00;100734.06;6277628;28;20040;-92
2022/09/12 09:43:28;;;;;;;7.10;5.07;;;;;;;20.04;100.00;100726.44;6272011;28;20040;-91
2022/09/12 09:46:31;;;;;;;6.07;4.53;;;;;;;20.11;100.00;100728.19;6276373;28;20628;-91
2022/09/12 09:49:34;;;;;;;10.10;5.07;;;;;;;20.20;100.00;100731.56;6284803;28;20113;-92
2022/09/12 09:52:36;;;;;;;6.05;4.22;;;;;;;20.33;100.00;100730.94;6274274;28;20543;-91
2022/09/12 09:55:42;;;;;;;7.60;4.40;;;;;;;20.46;100.00;100728.50;6273547;28;20041;-92
2022/09/12 09:58:44;;;;;;;4.93;3.88;;;;;;;20.60;100.00;100726.91;6266236;28;20044;-92
2022/09/12 10:02:20;;;;;;;5.78;4.32;;;;;;;20.68;98.30;100728.63;6274537;28;20045;-92
2022/09/12 10:05:25;;;;;;;7.47;4.78;;;;;;;20.80;100.00;100727.16;6274243;28;20047;-92
2022/09/12 10:08:35;;;;;;;8.77;4.55;;;;;;;20.88;99.56;100713.91;6259610;28;20050;-92
2022/09/12 10:11:38;;;;;;;;;;;;;;;21.02;97.67;100717.50;6280354;28;20398;-92
2022/09/12 10:15:01;;;;;;;6.35;4.53;;;;;;;21.16;97.79;100711.38;6284284;28;20358;-92
2022/09/12 10:18:03;;;;;;;4.28;3.65;;;;;;;21.33;96.47;100713.78;6263019;28;20043;-92
2022/09/12 10:21:21;;;;;;;5.28;3.80;;;;;;;21.46;91.76;100712.09;6276956;28;20036;-92
2022/09/12 10:24:38;;;;;;;5.88;4.45;;;;;;;21.59;93.34;100715.88;6281869;28;20044;-92
2022/09/12 10:27:40;;;;;;;6.82;4.20;;;;;;;21.64;91.24;100713.47;6290840;28;20264;-92
2022/09/12 10:30:51;;;;;;;6.15;3.30;;;;;;;21.65;88.58;100718.56;6278394;28;20166;-92
2022/09/12 10:33:56;;;;;;;3.78;3.38;;;;;;;21.70;89.50;100715.38;6282025;28;20044;-92
2022/09/12 10:37:02;;;;;;;5.60;3.65;;;;;;;21.74;87.28;100708.72;6283486;28;20056;-92
2022/09/12 10:40:19;;;;;;;4.07;3.50;;;;;;;21.78;85.47;100706.53;6274938;28;20048;-92
2022/09/12 10:43:24;;;;;;;5.20;3.63;;;;;;;21.89;86.91;100709.47;6286740;28;20040;-92
2022/09/12 10:46:30;;;;;;;3.90;2.83;;;;;;;22.11;84.37;100702.31;6277909;28;20624;-92
2022/09/12 10:49:37;;;;;;;3.70;3.40;;;;;;;22.30;81.27;100703.47;6278804;28;20403;-92
2022/09/12 10:52:38;;;;;;;5.28;3.05;;;;;;;22.35;80.59;100697.63;6274808;28;20147;-92
2022/09/12 10:55:51;;;;;;;4.28;3.20;;;;;;;22.48;80.36;100695.03;6283399;28;20049;-92
2022/09/12 10:59:50;;;;;;;4.15;3.22;;;;;;;22.67;79.13;100685.59;6293147;28;20048;-91
2022/09/12 11:03:16;;;;;;;3.65;3.25;;;;;;;22.68;80.59;100694.31;6212740;28;20073;-92
2022/09/12 11:06:29;;;;;;;4.18;3.33;;;;;;;22.75;80.75;100685.41;6215137;28;20077;-92
2022/09/12 11:09:52;;;;;;;4.32;3.47;;;;;;;22.85;78.97;100684.25;6193493;28;20095;-92
2022/09/12 11:13:32;;;;;;;3.38;3.08;;;;;;;22.94;76.19;100677.78;6193021;28;20046;-92
2022/09/12 11:16:56;;;;;;;4.80;2.78;;;;;;;22.98;78.56;100676.38;6208979;28;20419;-92
2022/09/12 11:20:29;;;;;;;3.83;3.10;;;;;;;22.95;74.89;100677.56;6195255;28;20057;-92
2022/09/12 11:23:43;;;;;;;2.47;2.28;;;;;;;23.00;76.09;100669.91;6200994;28;20049;-92
2022/09/12 11:27:03;;;;;;;3.28;2.95;;;;;;;23.06;73.80;100670.13;6195570;28;20081;-92
2022/09/12 11:30:09;;;;;;;;;;;;;;;22.88;72.33;100660.91;6197014;28;20652;-92
2022/09/12 11:33:43;;;;;;;3.15;2.85;;;;;;;22.80;73.41;100663.72;6207826;28;20387;-92
2022/09/12 11:37:06;;;;;;;3.78;2.90;;;;;;;22.94;76.30;100651.38;6207087;28;20042;-92
2022/09/12 11:40:43;;;;;;;3.92;2.75;;;;;;;23.29;72.27;100648.63;6227737;28;20080;-92
2022/09/12 11:44:07;;;;;;;3.17;2.75;;;;;;;23.31;70.59;100651.88;6217537;28;20155;-92
2022/09/12 11:47:12;;;;;;;3.35;2.60;;;;;;;23.28;72.84;100639.06;6231048;28;20056;-92
2022/09/12 11:50:27;;;;;;;3.45;2.63;;;;;;;23.25;73.49;100648.19;6213818;28;20061;-93
2022/09/12 11:53:39;;;;;;;2.60;2.38;;;;;;;23.20;69.31;100646.19;6211175;28;20045;-92
2022/09/12 11:56:46;;;;;;;3.85;2.60;;;;;;;23.16;71.91;100650.22;6234905;28;20061;-92
2022/09/12 11:59:59;;;;;;;2.47;2.25;;;;;;;23.29;69.78;100641.50;6233391;28;20427;-92
2022/09/12 12:03:09;;;;;;;2.88;2.28;;;;;;;23.49;68.21;100643.34;6229168;28;20101;-92
2022/09/12 12:06:29;;;;;;;3.73;2.53;;;;;;;23.71;67.09;100642.13;6221620;28;20049;-93
2022/09/12 12:09:32;;;;;;;2.53;2.20;;;;;;;23.95;64.19;100637.22;6205306;28;20119;-93
2022/09/12 12:12:34;;;;;;;3.20;2.33;;;;;;;23.92;64.34;100643.72;6214576;28;20077;-92
2022/09/12 12:15:38;;;;;;;2.45;2.20;;;;;;;23.95;64.46;100635.41;6209970;28;20163;-92
2022/09/12 12:18:42;;;;;;;3.30;2.30;;;;;;;24.04;66.59;100642.09;6282201;28;20052;-93
2022/09/12 12:21:47;;;;;;;3.80;2.33;;;;;;;24.04;65.35;100636.78;6296711;28;20047;-93
2022/09/12 12:25:12;;;;;;;2.70;2.50;;;;;;;23.88;66.50;100633.81;6280536;28;20075;-93
2022/09/12 12:28:40;;;;;;;2.95;2.10;;;;;;;23.93;67.99;100634.00;6202637;28;20045;-92
2022/09/12 12:32:02;;;;;;;3.97;2.15;;;;;;;24.11;68.91;100628.03;6199916;28;20062;-93
2022/09/12 12:35:37;;;;;;;3.33;2.58;;;;;;;24.25;68.38;100622.50;6198992;28;20077;-93
2022/09/12 12:38:39;;;;;;;3.83;2.58;;;;;;;24.28;63.28;100618.63;6191479;28;20080;-92
2022/09/12 12:41:43;;;;;;;3.85;2.35;;;;;;;24.15;65.77;100622.13;6196788;28;20489;-92
2022/09/12 12:44:47;;;;;;;2.33;2.08;;;;;;;24.19;64.27;100618.03;6205777;28;20807;-92
2022/09/12 12:47:52;;;;;;;2.60;2.40;;;;;;;24.28;62.70;100611.50;6202586;28;20081;-92
2022/09/12 12:51:22;;;;;;;3.08;2.17;;;;;;;24.32;64.00;100611.88;6185416;28;20577;-92
2022/09/12 12:54:39;;;;;;;2.75;1.98;;;;;;;24.25;64.54;100611.94;6186280;28;20094;-92
2022/09/12 12:57:56;;;;;;;3.35;2.40;;;;;;;24.22;62.18;100612.34;6199082;28;20054;-92
2022/09/12 13:01:19;;;;;;;2.00;1.85;;;;;;;24.39;56.25;100606.56;6189494;28;20062;-93
2022/09/12 13:04:30;;;;;;;1.90;1.70;;;;;;;24.50;54.79;100595.38;6197167;28;20071;-92
2022/09/12 13:07:36;;;;;;;3.25;1.83;;;;;;;24.53;55.39;100592.28;6270315;28;20075;-92
2022/09/12 13:10:49;;;;;;;2.55;1.90;;;;;;;24.53;54.56;100586.19;6278938;28;20490;-91
2022/09/12 13:13:57;;;;;;;3.20;2.03;;;;;;;24.48;54.69;100587.63;6269430;28;20045;-91
2022/09/12 13:17:03;;;;;;;2.05;1.90;;;;;;;24.49;55.75;100583.94;6268686;28;20078;-92
2022/09/12 13:20:25;;;;;;;2.50;1.98;;;;;;;24.49;55.21;100578.66;6278658;28;20044;-92
2022/09/12 13:23:31;;;;;;;2.38;2.17;;;;;;;24.57;56.59;100580.28;6281919;28;20040;-91
2022/09/12 13:26:39;;;;;;;3.38;2.50;;;;;;;24.18;59.00;100571.44;6294420;28;20044;-92
2022/09/12 13:29:41;;;;;;;2.67;2.08;;;;;;;24.21;60.58;100576.31;6273329;28;20072;-92
2022/09/12 13:32:43;;;;;;;4.57;2.08;;;;;;;24.65;57.60;100564.13;6273083;28;20041;-92
2022/09/12 13:36:24;;;;;;;4.45;2.05;;;;;;;25.21;55.70;100574.97;6280050;28;20043;-92
2022/09/12 13:40:01;;;;;;;2.60;2.40;;;;;;;25.37;54.47;100565.66;6280166;28;20603;-92
2022/09/12 13:43:22;;;;;;;2.60;2.40;;;;;;;25.14;57.38;100557.25;6271387;28;20045;-92
2022/09/12 13:46:30;;;;;;;2.55;2.35;;;;;;;25.03;56.16;100544.72;6268703;28;20071;-92
2022/09/12 13:49:35;;;;;;;2.47;1.92;;;;;;;24.72;57.24;100540.28;6276388;28;20049;-91
2022/09/12 13:52:38;;;;;;;2.95;2.03;;;;;;;24.75;56.01;100541.69;6274035;28;20033;-91
2022/09/12 13:55:45;;;;;;;3.20;2.35;;;;;;;24.98;54.84;100533.94;6272986;28;20056;-92
2022/09/12 13:58:55;;;;;;;2.80;2.50;;;;;;;25.34;56.12;100533.28;6278848;28;20068;-92
2022/09/12 14:01:57;;;;;;;2.72;2.10;;;;;;;24.98;57.50;100530.50;6271793;28;20048;-91
2022/09/12 14:05:12;;;;;;;2.25;1.98;;;;;;;24.71;58.38;100520.91;6279128;28;20346;-92
2022/09/12 14:08:14;;;;;;;3.22;2.35;;;;;;;25.06;54.52;100514.31;6277147;28;20041;-92
2022/09/12 14:11:29;;;;;;;2.35;2.15;;;;;;;25.32;54.44;100515.97;6273498;28;20377;-92
2022/09/12 14:14:42;;;;;;;3.05;2.22;;;;;;;25.57;57.05;100507.97;6271876;28;20041;-92
2022/09/12 14:17:52;;;;;;;4.10;2.30;;;;;;;25.64;55.39;100510.53;6273192;28;20167;-93
2022/09/12 14:20:59;;;;;;;2.72;2.10;;;;;;;25.64;53.67;100503.41;6282278;28;20052;-93
2022/09/12 14:24:05;;;;;;;2.45;2.13;;;;;;;25.64;53.73;100502.56;6270922;28;20729;-93
2022/09/12 14:27:09;;;;;;;2.20;2.00;;;;;;;25.66;53.11;100500.50;6275321;28;20041;-92
2022/09/12 14:30:31;;;;;;;2.78;1.70;;;;;;;25.81;51.33;100503.59;6275325;28;20550;-92
2022/09/12 14:33:49;;;;;;;2.20;1.98;;;;;;;25.79;51.04;100495.06;6269390;28;20045;-92